Meteo Giornale » Osservazioni meteo Stati Uniti (USA) » New York City Central Park

ore: 20:51 - Osservazioni Meteo New York City Central Park
Lat. 40° 47' N Lon. 73° 58' W Alt. 47 metri s.l.m.

sereno America/New_York

18 °C

Sereno

Temp. 24 Ore

14 °C

23 °C

Nord

5.5 Km/h

Dew point 3 °C

Umidità 36 %

Visibilità  10 Km

Il sole sorge alle ore 07:12

Il sole tramonta alle ore 18:08

Data e Ora Cielo e Fenomeni T °C DP °C Um. % Pres. hPa Vis. km Vento km/h
Oggi h: 20:51 sereno Sereno 18 3 36 1022 10 N 5.5
Oggi h: 19:51 sereno Sereno 20 2 30 1022 10 N 0
Oggi h: 18:51 sereno Sereno 20 2 30 1021 10 O/NO 7.4
Oggi h: 17:51 sereno Sereno 22 1 24 1020 10 N 9.3
Oggi h: 15:51 sereno Sereno 23 -2 18 1020 10 N 7.4
Oggi h: 14:51 sereno Sereno 23 -2 18 1020 10 N 7.4
Oggi h: 13:51 sereno Sereno 22 -2 19 1020 10 O/NO 13
Oggi h: 12:51 sereno Sereno 22 -4 17 1021 10 O/NO 14.8
Oggi h: 11:51 sereno Sereno 21 -2 21 1022 14 O/NO 13
Oggi h: 10:51 sereno Sereno 19 -2 24 1022 10 N 0
Oggi h: 09:51 sereno Sereno 16 4 44 1022 10 O 13
Oggi h: 08:51 sereno Sereno 16 6 51 1022 14 O 9.3
Oggi h: 07:51 sereno Sereno 14 8 67 1021 13 O/SO 11.1
Oggi h: 06:51 sereno Sereno 14 8 67 1021 10 N 5.5
Oggi h: 05:51 sereno Sereno 14 8 67 1020 10 N 5.5
Oggi h: 04:51 sereno Sereno 15 8 62 1020 10 N 0
Oggi h: 03:51 sereno Sereno 16 8 58 1019 10 N 0
Oggi h: 02:51 sereno Sereno 16 8 58 1019 10 N 0
Oggi h: 01:51 sereno Sereno 16 8 58 1019 10 N 9.3
Oggi h: 00:51 sereno Sereno 17 8 55 1019 10 O 13
Ieri h: 23:51 sereno Sereno 17 8 55 1019 10 N 9.3
Ieri h: 22:51 sereno Sereno 17 7 51 1019 10 N 0
Ieri h: 21:51 sereno Sereno 18 7 48 1020 10 N 0